UAE440 LLBG-OMDB
Flight info
| Callsign | UAE440 |
|---|---|
| Flight time | 2h 33m |
| Altitude | 37000 |
| Route | SALAM N134 OSAMA DCT EGLOT R652 KULDI N318 NEVOL Q255 LUDEP P559 VUTEB |
| Aircraft | B77W/H-SDE1E2E3FGHIJ2J3J4J5M1RWXY/LB1D1 |
Departure
| Time | 2026-05-05 17:18 |
|---|---|
| Airport | Ben Gurion International Airport (LLBG) |
Arrival
| Time | 2026-05-05 19:51 |
|---|---|
| Airport | Dubai International Airport (OMDB) |
| Time | Latitude | Longitude | Altitude | Speed | Heading |
|---|---|---|---|---|---|
| 2026-05-05 16:36 | 32.00079 | 34.87398 | 125 ft | 0 kts | 36° |
| 2026-05-05 17:05 | 32.00074 | 34.87394 | 120 ft | 4 kts | 40° |
| 2026-05-05 17:05 | 32.00059 | 34.87372 | 120 ft | 3 kts | 34° |
| 2026-05-05 17:05 | 32.00043 | 34.87362 | 125 ft | 4 kts | 335° |
| 2026-05-05 17:05 | 32.00028 | 34.87382 | 126 ft | 3 kts | 302° |
| 2026-05-05 17:06 | 32.00014 | 34.87408 | 125 ft | 4 kts | 302° |
| 2026-05-05 17:06 | 32.00000 | 34.87435 | 120 ft | 4 kts | 302° |
| 2026-05-05 17:06 | 31.99986 | 34.87460 | 125 ft | 4 kts | 292° |
| 2026-05-05 17:06 | 31.99986 | 34.87485 | 125 ft | 4 kts | 224° |
| 2026-05-05 17:07 | 32.00006 | 34.87500 | 120 ft | 4 kts | 211° |
| 2026-05-05 17:07 | 32.00029 | 34.87518 | 125 ft | 4 kts | 214° |
| 2026-05-05 17:07 | 32.00040 | 34.87527 | 125 ft | 0 kts | 212° |
| 2026-05-05 17:10 | 32.00039 | 34.87527 | 125 ft | 0 kts | 212° |
| 2026-05-05 17:10 | 32.00029 | 34.87519 | 121 ft | 5 kts | 212° |
| 2026-05-05 17:11 | 31.99969 | 34.87507 | 125 ft | 10 kts | 152° |
| 2026-05-05 17:11 | 31.99970 | 34.87576 | 120 ft | 10 kts | 40° |
| 2026-05-05 17:11 | 32.00029 | 34.87619 | 122 ft | 10 kts | 31° |
| 2026-05-05 17:11 | 32.00091 | 34.87662 | 121 ft | 11 kts | 31° |
| 2026-05-05 17:12 | 32.00161 | 34.87712 | 122 ft | 13 kts | 31° |
| 2026-05-05 17:12 | 32.00246 | 34.87773 | 121 ft | 15 kts | 31° |
| 2026-05-05 17:12 | 32.00343 | 34.87843 | 120 ft | 17 kts | 31° |
| 2026-05-05 17:12 | 32.00452 | 34.87922 | 120 ft | 19 kts | 32° |
| 2026-05-05 17:13 | 32.00533 | 34.87950 | 120 ft | 10 kts | 335° |
| 2026-05-05 17:13 | 32.00595 | 34.87929 | 121 ft | 10 kts | 14° |
| 2026-05-05 17:13 | 32.00665 | 34.87974 | 121 ft | 15 kts | 31° |
| 2026-05-05 17:13 | 32.00773 | 34.88053 | 121 ft | 21 kts | 32° |
| 2026-05-05 17:14 | 32.00899 | 34.88143 | 121 ft | 22 kts | 31° |
| 2026-05-05 17:14 | 32.01029 | 34.88238 | 121 ft | 22 kts | 31° |
| 2026-05-05 17:14 | 32.01162 | 34.88334 | 121 ft | 22 kts | 31° |
| 2026-05-05 17:14 | 32.01290 | 34.88437 | 120 ft | 22 kts | 41° |
| 2026-05-05 17:15 | 32.01394 | 34.88573 | 125 ft | 22 kts | 54° |
| 2026-05-05 17:15 | 32.01468 | 34.88734 | 120 ft | 22 kts | 68° |
| 2026-05-05 17:15 | 32.01507 | 34.88911 | 122 ft | 22 kts | 80° |
| 2026-05-05 17:15 | 32.01535 | 34.89092 | 122 ft | 22 kts | 79° |
| 2026-05-05 17:16 | 32.01562 | 34.89269 | 122 ft | 22 kts | 79° |
| 2026-05-05 17:16 | 32.01590 | 34.89450 | 120 ft | 22 kts | 79° |
| 2026-05-05 17:16 | 32.01609 | 34.89571 | 120 ft | 22 kts | 80° |
| 2026-05-05 17:16 | 32.01665 | 34.89694 | 120 ft | 17 kts | 31° |
| 2026-05-05 17:17 | 32.01767 | 34.89760 | 123 ft | 17 kts | 27° |
| 2026-05-05 17:17 | 32.01840 | 34.89723 | 120 ft | 10 kts | 277° |
| 2026-05-05 17:17 | 32.01819 | 34.89559 | 118 ft | 42 kts | 260° |
| 2026-05-05 17:17 | 32.01716 | 34.88894 | 122 ft | 120 kts | 260° |
| 2026-05-05 17:18 | 32.01525 | 34.87679 | 244 ft | 167 kts | 261° |
| 2026-05-05 17:18 | 32.01321 | 34.86297 | 830 ft | 175 kts | 262° |
| 2026-05-05 17:18 | 32.01112 | 34.84899 | 1800 ft | 171 kts | 261° |
| 2026-05-05 17:18 | 32.00839 | 34.83525 | 2386 ft | 184 kts | 259° |
| 2026-05-05 17:19 | 32.00526 | 34.81972 | 2652 ft | 209 kts | 259° |
| 2026-05-05 17:19 | 32.00164 | 34.80198 | 3036 ft | 232 kts | 259° |
| 2026-05-05 17:19 | 31.99772 | 34.78338 | 3755 ft | 237 kts | 257° |
| 2026-05-05 17:19 | 31.99354 | 34.76459 | 4627 ft | 238 kts | 257° |
| 2026-05-05 17:20 | 31.99242 | 34.74531 | 5338 ft | 241 kts | 284° |
| 2026-05-05 17:20 | 31.99826 | 34.72673 | 6077 ft | 244 kts | 289° |
| 2026-05-05 17:20 | 32.00426 | 34.70785 | 6874 ft | 248 kts | 288° |
| 2026-05-05 17:20 | 32.01020 | 34.68874 | 7697 ft | 249 kts | 289° |
| 2026-05-05 17:21 | 32.01622 | 34.66933 | 8445 ft | 255 kts | 289° |
| 2026-05-05 17:21 | 32.02237 | 34.64965 | 9250 ft | 256 kts | 290° |
| 2026-05-05 17:21 | 32.02832 | 34.62972 | 10021 ft | 259 kts | 285° |
| 2026-05-05 17:22 | 32.04219 | 34.59041 | 11232 ft | 271 kts | 315° |
| 2026-05-05 17:22 | 32.05804 | 34.57840 | 12118 ft | 277 kts | 336° |
| 2026-05-05 17:22 | 32.07718 | 34.57460 | 13029 ft | 287 kts | 358° |
| 2026-05-05 17:22 | 32.09764 | 34.58012 | 13377 ft | 321 kts | 21° |
| 2026-05-05 17:23 | 32.11718 | 34.59552 | 13615 ft | 357 kts | 39° |
| 2026-05-05 17:23 | 32.13393 | 34.61883 | 13832 ft | 390 kts | 55° |
| 2026-05-05 17:23 | 32.14522 | 34.64902 | 14254 ft | 414 kts | 75° |
| 2026-05-05 17:23 | 32.14641 | 34.68326 | 14945 ft | 426 kts | 100° |
| 2026-05-05 17:24 | 32.13610 | 34.71596 | 15788 ft | 429 kts | 124° |
| 2026-05-05 17:24 | 32.11599 | 34.74160 | 16729 ft | 426 kts | 147° |
| 2026-05-05 17:24 | 32.09015 | 34.75802 | 17598 ft | 421 kts | 159° |
| 2026-05-05 17:24 | 32.06377 | 34.77404 | 18268 ft | 433 kts | 152° |
| 2026-05-05 17:25 | 32.03934 | 34.79471 | 18985 ft | 442 kts | 143° |
| 2026-05-05 17:25 | 32.02366 | 34.81088 | 19526 ft | 445 kts | 140° |
| 2026-05-05 17:25 | 31.99378 | 34.84435 | 20570 ft | 447 kts | 137° |
| 2026-05-05 17:25 | 31.97550 | 34.87454 | 21040 ft | 463 kts | 118° |
| 2026-05-05 17:26 | 31.96561 | 34.91103 | 21685 ft | 474 kts | 99° |
| 2026-05-05 17:26 | 31.96307 | 34.94972 | 22336 ft | 476 kts | 94° |
| 2026-05-05 17:26 | 31.96149 | 34.98894 | 22952 ft | 483 kts | 94° |
| 2026-05-05 17:26 | 31.95983 | 35.02875 | 23603 ft | 489 kts | 94° |
| 2026-05-05 17:27 | 31.95801 | 35.06898 | 24156 ft | 495 kts | 94° |
| 2026-05-05 17:27 | 31.95600 | 35.10963 | 24673 ft | 500 kts | 94° |
| 2026-05-05 17:27 | 31.95381 | 35.15078 | 25168 ft | 506 kts | 95° |
| 2026-05-05 17:27 | 31.95151 | 35.19236 | 25674 ft | 512 kts | 95° |
| 2026-05-05 17:28 | 31.94913 | 35.23442 | 26158 ft | 518 kts | 95° |
| 2026-05-05 17:28 | 31.94671 | 35.27710 | 26573 ft | 525 kts | 95° |
| 2026-05-05 17:28 | 31.94428 | 35.32022 | 26973 ft | 531 kts | 95° |
| 2026-05-05 17:28 | 31.94180 | 35.36385 | 27428 ft | 537 kts | 95° |
| 2026-05-05 17:29 | 31.93930 | 35.40792 | 27867 ft | 541 kts | 95° |
| 2026-05-05 17:29 | 31.93673 | 35.45232 | 28306 ft | 545 kts | 95° |
| 2026-05-05 17:29 | 31.93415 | 35.49705 | 28688 ft | 550 kts | 95° |
| 2026-05-05 17:29 | 31.93200 | 35.54220 | 29044 ft | 555 kts | 93° |
| 2026-05-05 17:30 | 31.92912 | 35.58741 | 29304 ft | 554 kts | 103° |
| 2026-05-05 17:30 | 31.91737 | 35.63045 | 29555 ft | 552 kts | 120° |
| 2026-05-05 17:30 | 31.89735 | 35.66851 | 29961 ft | 544 kts | 134° |
| 2026-05-05 17:30 | 31.87142 | 35.70023 | 30331 ft | 532 kts | 147° |
| 2026-05-05 17:31 | 31.84208 | 35.72626 | 30746 ft | 528 kts | 151° |
| 2026-05-05 17:31 | 31.81243 | 35.75175 | 31259 ft | 526 kts | 150° |
| 2026-05-05 17:31 | 31.78390 | 35.77779 | 31835 ft | 525 kts | 148° |
| 2026-05-05 17:31 | 31.75554 | 35.80559 | 32378 ft | 525 kts | 147° |
| 2026-05-05 17:32 | 31.72816 | 35.83393 | 32855 ft | 525 kts | 146° |
| 2026-05-05 17:32 | 31.70147 | 35.86241 | 33285 ft | 525 kts | 145° |
| 2026-05-05 17:32 | 31.67460 | 35.89142 | 33681 ft | 525 kts | 145° |
| 2026-05-05 17:32 | 31.64774 | 35.92037 | 34068 ft | 523 kts | 146° |
| 2026-05-05 17:33 | 31.62081 | 35.94920 | 34400 ft | 523 kts | 146° |
| 2026-05-05 17:33 | 31.59396 | 35.97781 | 34759 ft | 521 kts | 146° |
| 2026-05-05 17:33 | 31.56705 | 36.00637 | 35062 ft | 521 kts | 146° |
| 2026-05-05 17:33 | 31.54017 | 36.03480 | 35404 ft | 520 kts | 146° |
| 2026-05-05 17:34 | 31.51337 | 36.06315 | 35830 ft | 516 kts | 146° |
| 2026-05-05 17:34 | 31.48679 | 36.09124 | 36244 ft | 514 kts | 146° |
| 2026-05-05 17:34 | 31.46021 | 36.11926 | 36596 ft | 514 kts | 147° |
| 2026-05-05 17:34 | 31.43362 | 36.14730 | 36913 ft | 513 kts | 147° |
| 2026-05-05 17:35 | 31.40703 | 36.17534 | 37029 ft | 517 kts | 146° |
| 2026-05-05 17:35 | 31.35347 | 36.23175 | 37061 ft | 517 kts | 146° |
| 2026-05-05 17:36 | 31.30643 | 36.29547 | 37055 ft | 535 kts | 123° |
| 2026-05-05 17:36 | 31.29356 | 36.33682 | 37058 ft | 549 kts | 107° |
| 2026-05-05 17:36 | 31.28959 | 36.38149 | 37049 ft | 559 kts | 89° |
| 2026-05-05 17:36 | 31.29540 | 36.42655 | 37076 ft | 561 kts | 78° |
| 2026-05-05 17:37 | 31.30364 | 36.47052 | 37063 ft | 561 kts | 79° |
| 2026-05-05 17:37 | 31.31210 | 36.56092 | 37046 ft | 557 kts | 94° |
| 2026-05-05 17:38 | 31.30542 | 36.65063 | 37043 ft | 553 kts | 100° |
| 2026-05-05 17:38 | 31.29789 | 36.74015 | 37039 ft | 553 kts | 99° |
| 2026-05-05 17:39 | 31.29125 | 36.82969 | 37028 ft | 552 kts | 99° |
| 2026-05-05 17:39 | 31.28471 | 36.91908 | 37072 ft | 551 kts | 99° |
| 2026-05-05 17:40 | 31.27797 | 37.00852 | 37012 ft | 552 kts | 99° |
| 2026-05-05 17:40 | 31.27117 | 37.09736 | 37020 ft | 552 kts | 99° |
| 2026-05-05 17:41 | 31.26429 | 37.18666 | 37021 ft | 551 kts | 100° |
| 2026-05-05 17:41 | 31.25082 | 37.27412 | 37019 ft | 543 kts | 111° |
| 2026-05-05 17:42 | 31.22640 | 37.35691 | 37024 ft | 538 kts | 117° |
| 2026-05-05 17:42 | 31.20086 | 37.43923 | 37024 ft | 540 kts | 116° |
| 2026-05-05 17:43 | 31.17590 | 37.52207 | 37007 ft | 541 kts | 116° |
| 2026-05-05 17:43 | 31.15102 | 37.60494 | 37016 ft | 541 kts | 116° |
| 2026-05-05 17:44 | 31.12585 | 37.68764 | 37018 ft | 541 kts | 116° |
| 2026-05-05 17:44 | 31.10054 | 37.77036 | 37006 ft | 541 kts | 116° |
| 2026-05-05 17:45 | 31.07520 | 37.85307 | 37017 ft | 541 kts | 116° |
| 2026-05-05 17:45 | 31.04980 | 37.93588 | 37018 ft | 541 kts | 116° |
| 2026-05-05 17:46 | 31.02440 | 38.01850 | 37013 ft | 541 kts | 116° |
| 2026-05-05 17:46 | 30.99916 | 38.10048 | 37008 ft | 540 kts | 116° |
| 2026-05-05 17:47 | 30.97367 | 38.18303 | 37016 ft | 540 kts | 117° |
| 2026-05-05 17:47 | 30.94815 | 38.26521 | 37007 ft | 538 kts | 117° |
| 2026-05-05 17:48 | 30.92272 | 38.34715 | 37005 ft | 538 kts | 117° |
| 2026-05-05 17:48 | 30.89741 | 38.42849 | 37006 ft | 537 kts | 117° |
| 2026-05-05 17:49 | 30.87188 | 38.51014 | 37015 ft | 536 kts | 117° |
| 2026-05-05 17:49 | 30.84629 | 38.59181 | 37012 ft | 536 kts | 117° |
| 2026-05-05 17:50 | 30.82071 | 38.67335 | 36982 ft | 536 kts | 117° |
| 2026-05-05 17:50 | 30.79511 | 38.75471 | 37014 ft | 535 kts | 118° |
| 2026-05-05 17:51 | 30.76494 | 38.83240 | 37007 ft | 527 kts | 124° |
| 2026-05-05 17:51 | 30.73179 | 38.90842 | 36999 ft | 526 kts | 125° |
| 2026-05-05 17:52 | 30.69878 | 38.98435 | 37011 ft | 526 kts | 124° |
| 2026-05-05 17:52 | 30.66603 | 39.06037 | 37026 ft | 527 kts | 124° |
| 2026-05-05 17:53 | 30.63334 | 39.13648 | 37009 ft | 526 kts | 124° |
| 2026-05-05 17:53 | 30.60069 | 39.21240 | 37020 ft | 525 kts | 125° |
| 2026-05-05 17:54 | 30.56796 | 39.28814 | 37035 ft | 525 kts | 124° |
| 2026-05-05 17:54 | 30.53520 | 39.36391 | 37027 ft | 525 kts | 125° |
| 2026-05-05 17:55 | 30.50236 | 39.43953 | 37033 ft | 525 kts | 125° |
| 2026-05-05 17:55 | 30.46950 | 39.51522 | 37044 ft | 525 kts | 125° |
| 2026-05-05 17:56 | 30.43660 | 39.59084 | 37045 ft | 526 kts | 126° |
| 2026-05-05 17:56 | 30.40373 | 39.66664 | 37044 ft | 528 kts | 124° |
| 2026-05-05 17:57 | 30.37280 | 39.74407 | 37054 ft | 531 kts | 122° |
| 2026-05-05 17:57 | 30.34244 | 39.82220 | 37031 ft | 532 kts | 123° |
| 2026-05-05 17:58 | 30.31190 | 39.89961 | 37047 ft | 532 kts | 123° |
| 2026-05-05 17:58 | 30.28087 | 39.97736 | 37045 ft | 532 kts | 123° |
| 2026-05-05 17:59 | 30.24972 | 40.05510 | 37021 ft | 533 kts | 124° |
| 2026-05-05 17:59 | 30.21862 | 40.13283 | 37033 ft | 533 kts | 124° |
| 2026-05-05 18:00 | 30.18746 | 40.21048 | 37034 ft | 533 kts | 124° |
| 2026-05-05 18:00 | 30.15626 | 40.28810 | 37035 ft | 532 kts | 124° |
| 2026-05-05 18:01 | 30.12501 | 40.36565 | 37019 ft | 532 kts | 124° |
| 2026-05-05 18:01 | 30.09363 | 40.44297 | 37033 ft | 532 kts | 124° |
| 2026-05-05 18:02 | 30.06214 | 40.52041 | 37024 ft | 533 kts | 124° |
| 2026-05-05 18:02 | 30.03593 | 40.58480 | 37022 ft | 533 kts | 124° |
| 2026-05-05 18:03 | 30.00428 | 40.66236 | 37020 ft | 534 kts | 124° |
| 2026-05-05 18:03 | 29.97260 | 40.73987 | 37018 ft | 534 kts | 124° |
| 2026-05-05 18:04 | 29.94091 | 40.81728 | 37025 ft | 535 kts | 124° |
| 2026-05-05 18:04 | 29.90883 | 40.89531 | 37031 ft | 543 kts | 124° |
| 2026-05-05 18:05 | 29.87619 | 40.97457 | 37018 ft | 551 kts | 124° |
| 2026-05-05 18:05 | 29.84315 | 41.05474 | 37019 ft | 557 kts | 124° |
| 2026-05-05 18:06 | 29.80978 | 41.13564 | 36973 ft | 561 kts | 124° |
| 2026-05-05 18:06 | 29.77620 | 41.21688 | 37003 ft | 562 kts | 124° |
| 2026-05-05 18:07 | 29.74256 | 41.29816 | 37006 ft | 564 kts | 124° |
| 2026-05-05 18:07 | 29.71375 | 41.38295 | 36988 ft | 571 kts | 118° |
| 2026-05-05 18:08 | 29.68756 | 41.46922 | 36997 ft | 571 kts | 117° |
| 2026-05-05 18:08 | 29.66126 | 41.55530 | 36992 ft | 570 kts | 118° |
| 2026-05-05 18:09 | 29.63460 | 41.64096 | 36981 ft | 567 kts | 118° |
| 2026-05-05 18:09 | 29.60797 | 41.72560 | 36979 ft | 566 kts | 118° |
| 2026-05-05 18:10 | 29.58117 | 41.81067 | 36965 ft | 565 kts | 118° |
| 2026-05-05 18:10 | 29.55437 | 41.89555 | 36972 ft | 565 kts | 118° |
| 2026-05-05 18:11 | 29.52752 | 41.98043 | 36983 ft | 565 kts | 118° |
| 2026-05-05 18:11 | 29.50068 | 42.06516 | 36976 ft | 565 kts | 118° |
| 2026-05-05 18:12 | 29.47377 | 42.14992 | 36972 ft | 565 kts | 118° |
| 2026-05-05 18:12 | 29.44679 | 42.23458 | 36964 ft | 566 kts | 118° |
| 2026-05-05 18:13 | 29.41973 | 42.31935 | 36966 ft | 566 kts | 118° |
| 2026-05-05 18:13 | 29.39257 | 42.40414 | 36969 ft | 566 kts | 118° |
| 2026-05-05 18:14 | 29.36538 | 42.48883 | 36958 ft | 566 kts | 118° |
| 2026-05-05 18:14 | 29.33816 | 42.57349 | 36965 ft | 566 kts | 118° |
| 2026-05-05 18:15 | 29.31086 | 42.65806 | 36949 ft | 566 kts | 118° |
| 2026-05-05 18:15 | 29.28352 | 42.74262 | 36973 ft | 566 kts | 118° |
| 2026-05-05 18:16 | 29.25603 | 42.82736 | 36951 ft | 567 kts | 118° |
| 2026-05-05 18:16 | 29.22857 | 42.91206 | 36949 ft | 567 kts | 118° |
| 2026-05-05 18:17 | 29.20116 | 42.99616 | 36946 ft | 568 kts | 118° |
| 2026-05-05 18:17 | 29.17350 | 43.08082 | 36946 ft | 567 kts | 119° |
| 2026-05-05 18:18 | 29.14001 | 43.16125 | 36947 ft | 553 kts | 129° |
| 2026-05-05 18:18 | 29.10064 | 43.23665 | 36916 ft | 552 kts | 130° |
| 2026-05-05 18:19 | 29.06135 | 43.31214 | 36940 ft | 552 kts | 130° |
| 2026-05-05 18:19 | 29.02250 | 43.38811 | 36937 ft | 553 kts | 129° |
| 2026-05-05 18:20 | 28.98397 | 43.46358 | 36919 ft | 552 kts | 129° |
| 2026-05-05 18:20 | 28.94509 | 43.53930 | 36934 ft | 552 kts | 129° |
| 2026-05-05 18:21 | 28.90605 | 43.61487 | 36933 ft | 553 kts | 129° |
| 2026-05-05 18:21 | 28.86694 | 43.69048 | 36926 ft | 552 kts | 130° |
| 2026-05-05 18:22 | 28.82788 | 43.76594 | 36926 ft | 553 kts | 130° |
| 2026-05-05 18:22 | 28.78874 | 43.84138 | 36911 ft | 552 kts | 130° |
| 2026-05-05 18:23 | 28.74963 | 43.91659 | 36919 ft | 552 kts | 130° |
| 2026-05-05 18:23 | 28.71051 | 43.99179 | 36920 ft | 551 kts | 130° |
| 2026-05-05 18:24 | 28.67135 | 44.06688 | 36911 ft | 551 kts | 130° |
| 2026-05-05 18:24 | 28.63216 | 44.14187 | 36928 ft | 551 kts | 130° |
| 2026-05-05 18:25 | 28.59315 | 44.21637 | 36923 ft | 551 kts | 130° |
| 2026-05-05 18:25 | 28.55387 | 44.29128 | 36906 ft | 551 kts | 130° |
| 2026-05-05 18:26 | 28.51458 | 44.36612 | 36880 ft | 551 kts | 130° |
| 2026-05-05 18:26 | 28.47530 | 44.44073 | 36892 ft | 550 kts | 130° |
| 2026-05-05 18:27 | 28.43599 | 44.51532 | 36897 ft | 550 kts | 130° |
| 2026-05-05 18:27 | 28.39660 | 44.58985 | 36907 ft | 550 kts | 130° |
| 2026-05-05 18:28 | 28.33749 | 44.70152 | 36885 ft | 550 kts | 130° |
| 2026-05-05 18:28 | 28.29801 | 44.77595 | 36900 ft | 550 kts | 130° |
| 2026-05-05 18:29 | 28.25846 | 44.85041 | 36897 ft | 551 kts | 130° |
| 2026-05-05 18:29 | 28.21887 | 44.92481 | 36896 ft | 551 kts | 130° |
| 2026-05-05 18:30 | 28.17926 | 44.99906 | 36866 ft | 550 kts | 130° |
| 2026-05-05 18:30 | 28.13969 | 45.07318 | 36891 ft | 550 kts | 130° |
| 2026-05-05 18:31 | 28.10002 | 45.14743 | 36862 ft | 551 kts | 130° |
| 2026-05-05 18:31 | 28.06041 | 45.22164 | 36882 ft | 551 kts | 130° |
| 2026-05-05 18:32 | 28.02064 | 45.29597 | 36878 ft | 552 kts | 130° |
| 2026-05-05 18:32 | 27.98109 | 45.36980 | 36850 ft | 553 kts | 130° |
| 2026-05-05 18:33 | 27.94114 | 45.44419 | 36872 ft | 553 kts | 130° |
| 2026-05-05 18:33 | 27.90186 | 45.51921 | 36869 ft | 560 kts | 125° |
| 2026-05-05 18:34 | 27.87157 | 45.60134 | 36884 ft | 572 kts | 115° |
| 2026-05-05 18:34 | 27.85211 | 45.68942 | 36878 ft | 580 kts | 109° |
| 2026-05-05 18:35 | 27.83481 | 45.77853 | 36858 ft | 580 kts | 109° |
| 2026-05-05 18:35 | 27.81689 | 45.86741 | 36864 ft | 580 kts | 109° |
| 2026-05-05 18:36 | 27.79845 | 45.95603 | 36857 ft | 579 kts | 110° |
| 2026-05-05 18:36 | 27.77994 | 46.04454 | 36862 ft | 579 kts | 110° |
| 2026-05-05 18:37 | 27.76138 | 46.13314 | 36859 ft | 580 kts | 110° |
| 2026-05-05 18:37 | 27.74281 | 46.22182 | 36861 ft | 581 kts | 110° |
| 2026-05-05 18:38 | 27.72420 | 46.31059 | 36854 ft | 581 kts | 110° |
| 2026-05-05 18:38 | 27.70562 | 46.39939 | 36859 ft | 581 kts | 110° |
| 2026-05-05 18:39 | 27.68695 | 46.48824 | 36849 ft | 581 kts | 110° |
| 2026-05-05 18:39 | 27.66829 | 46.57695 | 36843 ft | 582 kts | 110° |
| 2026-05-05 18:40 | 27.64953 | 46.66575 | 36843 ft | 582 kts | 110° |
| 2026-05-05 18:40 | 27.63066 | 46.75465 | 36840 ft | 583 kts | 110° |
| 2026-05-05 18:41 | 27.61187 | 46.84291 | 36842 ft | 583 kts | 110° |
| 2026-05-05 18:41 | 27.59291 | 46.93172 | 36839 ft | 583 kts | 110° |
| 2026-05-05 18:42 | 27.57382 | 47.02068 | 36825 ft | 584 kts | 110° |
| 2026-05-05 18:42 | 27.55471 | 47.10961 | 36827 ft | 584 kts | 110° |
| 2026-05-05 18:43 | 27.53552 | 47.19844 | 36821 ft | 583 kts | 110° |
| 2026-05-05 18:43 | 27.51629 | 47.28741 | 36825 ft | 583 kts | 110° |
| 2026-05-05 18:44 | 27.49706 | 47.37605 | 36816 ft | 584 kts | 110° |
| 2026-05-05 18:44 | 27.47784 | 47.46430 | 36805 ft | 583 kts | 110° |
| 2026-05-05 18:45 | 27.45849 | 47.55288 | 36809 ft | 582 kts | 110° |
| 2026-05-05 18:45 | 27.43838 | 47.64111 | 36802 ft | 579 kts | 114° |
| 2026-05-05 18:46 | 27.41821 | 47.71285 | 36815 ft | 577 kts | 115° |
| 2026-05-05 18:46 | 27.39316 | 47.79870 | 36784 ft | 576 kts | 115° |
| 2026-05-05 18:47 | 27.36857 | 47.88429 | 36797 ft | 574 kts | 114° |
| 2026-05-05 18:47 | 27.34421 | 47.96986 | 36781 ft | 574 kts | 115° |
| 2026-05-05 18:48 | 27.31974 | 48.05550 | 36787 ft | 573 kts | 114° |
| 2026-05-05 18:48 | 27.29581 | 48.14097 | 36767 ft | 573 kts | 113° |
| 2026-05-05 18:49 | 27.27330 | 48.22684 | 36761 ft | 572 kts | 112° |
| 2026-05-05 18:49 | 27.25100 | 48.31258 | 36782 ft | 571 kts | 112° |
| 2026-05-05 18:50 | 27.22838 | 48.39811 | 36767 ft | 570 kts | 113° |
| 2026-05-05 18:50 | 27.20572 | 48.48295 | 36740 ft | 570 kts | 112° |
| 2026-05-05 18:51 | 27.18292 | 48.56804 | 36752 ft | 568 kts | 112° |
| 2026-05-05 18:51 | 27.16014 | 48.65305 | 36750 ft | 567 kts | 112° |
| 2026-05-05 18:52 | 27.13738 | 48.73788 | 36743 ft | 567 kts | 112° |
| 2026-05-05 18:52 | 27.11458 | 48.82258 | 36749 ft | 567 kts | 112° |
| 2026-05-05 18:53 | 27.09708 | 48.90936 | 36745 ft | 573 kts | 103° |
| 2026-05-05 18:53 | 27.09162 | 48.99896 | 36736 ft | 577 kts | 96° |
| 2026-05-05 18:54 | 27.08861 | 49.08890 | 36721 ft | 576 kts | 96° |
| 2026-05-05 18:54 | 27.08470 | 49.17863 | 36722 ft | 575 kts | 97° |
| 2026-05-05 18:55 | 27.08039 | 49.26836 | 36714 ft | 576 kts | 97° |
| 2026-05-05 18:55 | 27.07633 | 49.35810 | 36704 ft | 577 kts | 97° |
| 2026-05-05 18:56 | 27.07217 | 49.44792 | 36711 ft | 576 kts | 97° |
| 2026-05-05 18:56 | 27.06779 | 49.53706 | 36701 ft | 577 kts | 97° |
| 2026-05-05 18:57 | 27.06336 | 49.62691 | 36716 ft | 577 kts | 97° |
| 2026-05-05 18:57 | 27.05889 | 49.71689 | 36739 ft | 578 kts | 97° |
| 2026-05-05 18:58 | 27.05438 | 49.80704 | 36743 ft | 579 kts | 97° |
| 2026-05-05 18:58 | 27.04980 | 49.89722 | 36754 ft | 579 kts | 97° |
| 2026-05-05 18:59 | 27.04567 | 49.98744 | 36750 ft | 580 kts | 94° |
| 2026-05-05 18:59 | 27.04651 | 50.07820 | 36760 ft | 581 kts | 92° |
| 2026-05-05 19:00 | 27.04747 | 50.16818 | 36761 ft | 580 kts | 92° |
| 2026-05-05 19:00 | 27.04815 | 50.25870 | 36762 ft | 580 kts | 92° |
| 2026-05-05 19:01 | 27.04458 | 50.34886 | 36759 ft | 575 kts | 103° |
| 2026-05-05 19:01 | 27.02662 | 50.43545 | 36760 ft | 567 kts | 114° |
| 2026-05-05 19:02 | 26.99638 | 50.51627 | 36757 ft | 560 kts | 120° |
| 2026-05-05 19:02 | 26.96549 | 50.59638 | 36757 ft | 560 kts | 119° |
| 2026-05-05 19:03 | 26.93513 | 50.67668 | 36762 ft | 558 kts | 119° |
| 2026-05-05 19:03 | 26.90466 | 50.75666 | 36771 ft | 558 kts | 119° |
| 2026-05-05 19:04 | 26.87430 | 50.83608 | 36771 ft | 558 kts | 119° |
| 2026-05-05 19:04 | 26.84364 | 50.91581 | 36764 ft | 558 kts | 119° |
| 2026-05-05 19:05 | 26.81288 | 50.99572 | 36771 ft | 558 kts | 119° |
| 2026-05-05 19:05 | 26.78226 | 51.07571 | 36776 ft | 559 kts | 119° |
| 2026-05-05 19:06 | 26.75429 | 51.15753 | 36773 ft | 564 kts | 115° |
| 2026-05-05 19:06 | 26.72846 | 51.23974 | 36771 ft | 563 kts | 115° |
| 2026-05-05 19:07 | 26.70225 | 51.32220 | 36779 ft | 562 kts | 115° |
| 2026-05-05 19:07 | 26.67576 | 51.40442 | 36772 ft | 561 kts | 115° |
| 2026-05-05 19:08 | 26.64927 | 51.48654 | 36781 ft | 562 kts | 115° |
| 2026-05-05 19:08 | 26.62286 | 51.56877 | 36758 ft | 562 kts | 115° |
| 2026-05-05 19:09 | 26.59646 | 51.65088 | 36782 ft | 561 kts | 115° |
| 2026-05-05 19:09 | 26.56995 | 51.73289 | 36782 ft | 561 kts | 115° |
| 2026-05-05 19:10 | 26.54335 | 51.81489 | 36772 ft | 561 kts | 115° |
| 2026-05-05 19:10 | 26.51693 | 51.89674 | 36783 ft | 560 kts | 115° |
| 2026-05-05 19:11 | 26.48981 | 51.97814 | 36779 ft | 559 kts | 115° |
| 2026-05-05 19:11 | 26.46312 | 52.05791 | 36761 ft | 540 kts | 115° |
| 2026-05-05 19:12 | 26.43705 | 52.13590 | 36790 ft | 534 kts | 115° |
| 2026-05-05 19:12 | 26.41098 | 52.21360 | 36786 ft | 536 kts | 115° |
| 2026-05-05 19:13 | 26.38483 | 52.29143 | 36792 ft | 536 kts | 116° |
| 2026-05-05 19:13 | 26.35865 | 52.36915 | 36783 ft | 535 kts | 115° |
| 2026-05-05 19:14 | 26.33106 | 52.44598 | 36786 ft | 532 kts | 118° |
| 2026-05-05 19:14 | 26.30133 | 52.52149 | 36786 ft | 532 kts | 119° |
| 2026-05-05 19:15 | 26.27191 | 52.59726 | 36787 ft | 533 kts | 118° |
| 2026-05-05 19:15 | 26.24284 | 52.67318 | 36780 ft | 533 kts | 118° |
| 2026-05-05 19:16 | 26.21373 | 52.74910 | 36790 ft | 533 kts | 118° |
| 2026-05-05 19:16 | 26.18477 | 52.82446 | 36788 ft | 533 kts | 118° |
| 2026-05-05 19:17 | 26.15559 | 52.90049 | 36787 ft | 534 kts | 118° |
| 2026-05-05 19:17 | 26.12635 | 52.97651 | 36787 ft | 534 kts | 118° |
| 2026-05-05 19:18 | 26.09703 | 53.05256 | 36776 ft | 535 kts | 117° |
| 2026-05-05 19:18 | 26.06884 | 53.12902 | 36791 ft | 535 kts | 116° |
| 2026-05-05 19:19 | 26.04097 | 53.20574 | 36786 ft | 535 kts | 116° |
| 2026-05-05 19:19 | 26.01291 | 53.28231 | 36784 ft | 534 kts | 116° |
| 2026-05-05 19:20 | 25.98468 | 53.35883 | 36791 ft | 535 kts | 116° |
| 2026-05-05 19:20 | 25.95629 | 53.43562 | 36055 ft | 545 kts | 116° |
| 2026-05-05 19:21 | 25.94190 | 53.47456 | 35315 ft | 545 kts | 116° |
| 2026-05-05 19:21 | 25.92758 | 53.51357 | 34446 ft | 546 kts | 115° |
| 2026-05-05 19:21 | 25.91381 | 53.55304 | 33497 ft | 549 kts | 114° |
| 2026-05-05 19:21 | 25.90035 | 53.59280 | 32461 ft | 551 kts | 114° |
| 2026-05-05 19:22 | 25.88705 | 53.63225 | 31473 ft | 552 kts | 113° |
| 2026-05-05 19:22 | 25.87349 | 53.67206 | 30665 ft | 550 kts | 113° |
| 2026-05-05 19:22 | 25.85992 | 53.71147 | 30021 ft | 544 kts | 113° |
| 2026-05-05 19:22 | 25.84639 | 53.75048 | 29261 ft | 538 kts | 113° |
| 2026-05-05 19:23 | 25.83294 | 53.78902 | 28586 ft | 532 kts | 113° |
| 2026-05-05 19:23 | 25.81964 | 53.82702 | 27939 ft | 524 kts | 113° |
| 2026-05-05 19:23 | 25.80653 | 53.86449 | 27301 ft | 518 kts | 113° |
| 2026-05-05 19:23 | 25.79360 | 53.90151 | 26663 ft | 511 kts | 112° |
| 2026-05-05 19:24 | 25.78082 | 53.93809 | 26045 ft | 505 kts | 112° |
| 2026-05-05 19:24 | 25.76820 | 53.97420 | 25430 ft | 499 kts | 112° |
| 2026-05-05 19:24 | 25.75568 | 54.00994 | 24815 ft | 494 kts | 112° |
| 2026-05-05 19:24 | 25.74378 | 54.04547 | 24171 ft | 489 kts | 110° |
| 2026-05-05 19:25 | 25.73289 | 54.08102 | 23573 ft | 485 kts | 109° |
| 2026-05-05 19:25 | 25.72236 | 54.11639 | 22874 ft | 480 kts | 109° |
| 2026-05-05 19:25 | 25.71191 | 54.15137 | 22209 ft | 475 kts | 109° |
| 2026-05-05 19:25 | 25.70147 | 54.18579 | 21586 ft | 469 kts | 109° |
| 2026-05-05 19:26 | 25.69100 | 54.21990 | 20965 ft | 463 kts | 109° |
| 2026-05-05 19:26 | 25.68060 | 54.25349 | 20369 ft | 458 kts | 109° |
| 2026-05-05 19:26 | 25.67030 | 54.28665 | 19780 ft | 453 kts | 109° |
| 2026-05-05 19:26 | 25.66010 | 54.31951 | 19184 ft | 449 kts | 109° |
| 2026-05-05 19:27 | 25.65011 | 54.35177 | 18593 ft | 444 kts | 109° |
| 2026-05-05 19:27 | 25.64022 | 54.38399 | 17979 ft | 440 kts | 108° |
| 2026-05-05 19:27 | 25.63042 | 54.41602 | 17324 ft | 436 kts | 108° |
| 2026-05-05 19:27 | 25.62082 | 54.44746 | 16709 ft | 423 kts | 108° |
| 2026-05-05 19:28 | 25.61157 | 54.47769 | 16140 ft | 405 kts | 108° |
| 2026-05-05 19:28 | 25.60266 | 54.50675 | 15600 ft | 390 kts | 108° |
| 2026-05-05 19:28 | 25.59407 | 54.53470 | 15082 ft | 379 kts | 108° |
| 2026-05-05 19:28 | 25.58600 | 54.56234 | 14577 ft | 375 kts | 103° |
| 2026-05-05 19:29 | 25.58183 | 54.59072 | 14071 ft | 373 kts | 93° |
| 2026-05-05 19:29 | 25.58170 | 54.61940 | 13574 ft | 371 kts | 84° |
| 2026-05-05 19:29 | 25.58500 | 54.64747 | 13151 ft | 365 kts | 81° |
| 2026-05-05 19:29 | 25.58867 | 54.67465 | 13010 ft | 346 kts | 81° |
| 2026-05-05 19:30 | 25.59210 | 54.70021 | 12846 ft | 324 kts | 81° |
| 2026-05-05 19:30 | 25.59526 | 54.72414 | 12711 ft | 304 kts | 81° |
| 2026-05-05 19:30 | 25.59819 | 54.74679 | 12606 ft | 292 kts | 81° |
| 2026-05-05 19:30 | 25.60099 | 54.76872 | 12482 ft | 283 kts | 81° |
| 2026-05-05 19:31 | 25.60367 | 54.78990 | 12361 ft | 273 kts | 81° |
| 2026-05-05 19:31 | 25.60625 | 54.81035 | 12257 ft | 264 kts | 81° |
| 2026-05-05 19:31 | 25.60882 | 54.83066 | 12172 ft | 270 kts | 81° |
| 2026-05-05 19:31 | 25.61143 | 54.85166 | 12060 ft | 277 kts | 83° |
| 2026-05-05 19:32 | 25.60990 | 54.87288 | 11933 ft | 280 kts | 109° |
| 2026-05-05 19:32 | 25.60225 | 54.89239 | 11857 ft | 282 kts | 113° |
| 2026-05-05 19:32 | 25.59424 | 54.91226 | 11720 ft | 283 kts | 112° |
| 2026-05-05 19:32 | 25.58631 | 54.93214 | 11605 ft | 281 kts | 112° |
| 2026-05-05 19:33 | 25.57849 | 54.95189 | 11487 ft | 279 kts | 112° |
| 2026-05-05 19:33 | 25.57075 | 54.97149 | 11357 ft | 277 kts | 112° |
| 2026-05-05 19:33 | 25.56556 | 54.98467 | 11286 ft | 276 kts | 112° |
| 2026-05-05 19:33 | 25.55541 | 55.01038 | 11144 ft | 274 kts | 112° |
| 2026-05-05 19:34 | 25.54776 | 55.02973 | 11023 ft | 274 kts | 112° |
| 2026-05-05 19:34 | 25.53925 | 55.04866 | 10883 ft | 275 kts | 118° |
| 2026-05-05 19:34 | 25.52967 | 55.06699 | 10747 ft | 276 kts | 119° |
| 2026-05-05 19:35 | 25.51326 | 55.09784 | 10514 ft | 278 kts | 119° |
| 2026-05-05 19:35 | 25.50350 | 55.11635 | 10350 ft | 279 kts | 119° |
| 2026-05-05 19:35 | 25.49380 | 55.13494 | 10207 ft | 279 kts | 118° |
| 2026-05-05 19:35 | 25.48411 | 55.15351 | 10052 ft | 279 kts | 118° |
| 2026-05-05 19:36 | 25.47447 | 55.17206 | 9903 ft | 278 kts | 119° |
| 2026-05-05 19:36 | 25.46495 | 55.19035 | 9753 ft | 276 kts | 118° |
| 2026-05-05 19:36 | 25.45454 | 55.20787 | 9587 ft | 271 kts | 128° |
| 2026-05-05 19:36 | 25.44205 | 55.22336 | 9455 ft | 270 kts | 132° |
| 2026-05-05 19:37 | 25.42914 | 55.23854 | 9304 ft | 271 kts | 132° |
| 2026-05-05 19:37 | 25.41624 | 55.25378 | 9154 ft | 271 kts | 132° |
| 2026-05-05 19:37 | 25.40346 | 55.26911 | 9012 ft | 272 kts | 131° |
| 2026-05-05 19:37 | 25.39074 | 55.28458 | 8875 ft | 271 kts | 131° |
| 2026-05-05 19:38 | 25.37810 | 55.30005 | 8744 ft | 269 kts | 131° |
| 2026-05-05 19:38 | 25.36571 | 55.31522 | 8576 ft | 262 kts | 131° |
| 2026-05-05 19:38 | 25.35314 | 55.32912 | 8402 ft | 249 kts | 144° |
| 2026-05-05 19:38 | 25.33824 | 55.33890 | 8315 ft | 250 kts | 152° |
| 2026-05-05 19:39 | 25.32264 | 55.34768 | 8194 ft | 252 kts | 153° |
| 2026-05-05 19:39 | 25.30700 | 55.35639 | 8055 ft | 252 kts | 152° |
| 2026-05-05 19:39 | 25.29150 | 55.36513 | 7965 ft | 250 kts | 152° |
| 2026-05-05 19:39 | 25.27600 | 55.37398 | 7808 ft | 250 kts | 152° |
| 2026-05-05 19:40 | 25.26056 | 55.38289 | 7660 ft | 251 kts | 152° |
| 2026-05-05 19:40 | 25.24520 | 55.39180 | 7524 ft | 249 kts | 152° |
| 2026-05-05 19:40 | 25.22993 | 55.40072 | 7377 ft | 247 kts | 152° |
| 2026-05-05 19:40 | 25.21485 | 55.40955 | 7270 ft | 244 kts | 152° |
| 2026-05-05 19:41 | 25.19987 | 55.41834 | 7127 ft | 243 kts | 152° |
| 2026-05-05 19:41 | 25.18498 | 55.42704 | 6993 ft | 242 kts | 152° |
| 2026-05-05 19:41 | 25.17025 | 55.43565 | 6898 ft | 239 kts | 152° |
| 2026-05-05 19:41 | 25.15545 | 55.44429 | 6814 ft | 243 kts | 152° |
| 2026-05-05 19:42 | 25.14032 | 55.45312 | 6719 ft | 248 kts | 152° |
| 2026-05-05 19:42 | 25.12537 | 55.46194 | 6555 ft | 245 kts | 152° |
| 2026-05-05 19:42 | 25.11107 | 55.47203 | 6208 ft | 239 kts | 133° |
| 2026-05-05 19:42 | 25.10173 | 55.48720 | 5748 ft | 241 kts | 119° |
| 2026-05-05 19:43 | 25.09333 | 55.50293 | 5457 ft | 240 kts | 120° |
| 2026-05-05 19:43 | 25.08466 | 55.51859 | 5196 ft | 238 kts | 121° |
| 2026-05-05 19:43 | 25.07603 | 55.53408 | 4915 ft | 236 kts | 121° |
| 2026-05-05 19:43 | 25.06746 | 55.54944 | 4607 ft | 235 kts | 121° |
| 2026-05-05 19:44 | 25.05886 | 55.56477 | 4318 ft | 234 kts | 121° |
| 2026-05-05 19:44 | 25.05141 | 55.58043 | 3961 ft | 229 kts | 103° |
| 2026-05-05 19:44 | 25.05290 | 55.59757 | 3524 ft | 229 kts | 61° |
| 2026-05-05 19:44 | 25.06406 | 55.60928 | 3221 ft | 222 kts | 27° |
| 2026-05-05 19:45 | 25.07747 | 55.61728 | 3007 ft | 215 kts | 33° |
| 2026-05-05 19:45 | 25.09049 | 55.62541 | 2995 ft | 220 kts | 17° |
| 2026-05-05 19:45 | 25.10593 | 55.62492 | 3015 ft | 231 kts | 341° |
| 2026-05-05 19:45 | 25.11891 | 55.61458 | 2998 ft | 235 kts | 307° |
| 2026-05-05 19:46 | 25.12631 | 55.59879 | 3005 ft | 232 kts | 294° |
| 2026-05-05 19:46 | 25.13309 | 55.58260 | 3004 ft | 232 kts | 297° |
| 2026-05-05 19:46 | 25.14058 | 55.56742 | 2993 ft | 218 kts | 302° |
| 2026-05-05 19:46 | 25.14807 | 55.55368 | 2979 ft | 201 kts | 302° |
| 2026-05-05 19:47 | 25.15534 | 55.54051 | 2885 ft | 203 kts | 302° |
| 2026-05-05 19:47 | 25.16274 | 55.52721 | 2623 ft | 203 kts | 302° |
| 2026-05-05 19:47 | 25.17006 | 55.51398 | 2366 ft | 199 kts | 302° |
| 2026-05-05 19:47 | 25.17705 | 55.50134 | 2108 ft | 187 kts | 302° |
| 2026-05-05 19:48 | 25.18351 | 55.48967 | 1889 ft | 170 kts | 303° |
| 2026-05-05 19:48 | 25.18947 | 55.47875 | 1697 ft | 166 kts | 302° |
| 2026-05-05 19:48 | 25.19557 | 55.46770 | 1472 ft | 170 kts | 303° |
| 2026-05-05 19:48 | 25.20154 | 55.45662 | 1250 ft | 166 kts | 302° |
| 2026-05-05 19:49 | 25.20734 | 55.44607 | 1009 ft | 159 kts | 303° |
| 2026-05-05 19:49 | 25.21131 | 55.43920 | 906 ft | 157 kts | 303° |
| 2026-05-05 19:49 | 25.21891 | 55.42543 | 670 ft | 156 kts | 302° |
| 2026-05-05 19:49 | 25.22453 | 55.41525 | 451 ft | 154 kts | 304° |
| 2026-05-05 19:50 | 25.23013 | 55.40517 | 238 ft | 155 kts | 303° |
| 2026-05-05 19:50 | 25.23574 | 55.39509 | 78 ft | 154 kts | 304° |
| 2026-05-05 19:50 | 25.24107 | 55.38555 | 30 ft | 137 kts | 301° |
| 2026-05-05 19:50 | 25.24540 | 55.37775 | 27 ft | 101 kts | 301° |
| 2026-05-05 19:51 | 25.24844 | 55.37229 | 29 ft | 66 kts | 302° |
| 2026-05-05 19:51 | 25.24997 | 55.36924 | 29 ft | 34 kts | 288° |
| 2026-05-05 19:51 | 25.25021 | 55.36710 | 27 ft | 25 kts | 272° |
| 2026-05-05 19:51 | 25.25025 | 55.36590 | 26 ft | 11 kts | 271° |
| 2026-05-05 19:52 | 25.25025 | 55.36561 | 26 ft | 0 kts | 272° |
| 2026-05-05 19:52 | 25.25026 | 55.36556 | 26 ft | 2 kts | 272° |
| 2026-05-05 19:52 | 25.25026 | 55.36529 | 26 ft | 6 kts | 268° |
| 2026-05-05 19:52 | 25.25008 | 55.36482 | 26 ft | 6 kts | 219° |
| 2026-05-05 19:53 | 25.24966 | 55.36455 | 26 ft | 8 kts | 210° |
| 2026-05-05 19:53 | 25.24918 | 55.36422 | 28 ft | 9 kts | 211° |
| 2026-05-05 19:53 | 25.24895 | 55.36407 | 26 ft | 3 kts | 211° |
| 2026-05-05 19:53 | 25.24870 | 55.36390 | 29 ft | 6 kts | 211° |
| 2026-05-05 19:54 | 25.24843 | 55.36372 | 26 ft | 1 kts | 211° |
| 2026-05-05 19:54 | 25.24840 | 55.36370 | 26 ft | 0 kts | 211° |